sensor_id;sensor_type;location;lat;lon;timestamp;temperature;humidity
50606;DHT22;36557;53.572;10.170;2022-09-13T00:00:26;16.40;99.90
50606;DHT22;36557;53.572;10.170;2022-09-13T00:02:52;16.30;99.90
50606;DHT22;36557;53.572;10.170;2022-09-13T00:05:18;16.30;99.90
50606;DHT22;36557;53.572;10.170;2022-09-13T00:07:43;16.30;99.90
50606;DHT22;36557;53.572;10.170;2022-09-13T00:10:09;16.30;99.90
50606;DHT22;36557;53.572;10.170;2022-09-13T00:12:35;16.30;99.90
50606;DHT22;36557;53.572;10.170;2022-09-13T00:15:01;16.30;99.90
50606;DHT22;36557;53.572;10.170;2022-09-13T00:17:27;16.30;99.90
50606;DHT22;36557;53.572;10.170;2022-09-13T00:19:52;16.30;99.90
50606;DHT22;36557;53.572;10.170;2022-09-13T00:22:18;16.30;99.90
50606;DHT22;36557;53.572;10.170;2022-09-13T00:24:44;16.20;99.90
50606;DHT22;36557;53.572;10.170;2022-09-13T00:27:09;16.20;99.90
50606;DHT22;36557;53.572;10.170;2022-09-13T00:29:36;16.20;99.90
50606;DHT22;36557;53.572;10.170;2022-09-13T00:32:02;16.20;99.90
50606;DHT22;36557;53.572;10.170;2022-09-13T00:34:28;16.20;99.90
50606;DHT22;36557;53.572;10.170;2022-09-13T00:36:53;16.20;99.90
50606;DHT22;36557;53.572;10.170;2022-09-13T00:39:19;16.20;99.90
50606;DHT22;36557;53.572;10.170;2022-09-13T00:41:45;16.20;99.90
50606;DHT22;36557;53.572;10.170;2022-09-13T00:47:20;16.10;99.90
50606;DHT22;36557;53.572;10.170;2022-09-13T00:49:49;16.10;99.90
50606;DHT22;36557;53.572;10.170;2022-09-13T00:52:19;16.00;99.90
50606;DHT22;36557;53.572;10.170;2022-09-13T00:54:55;15.90;99.90
50606;DHT22;36557;53.572;10.170;2022-09-13T00:57:21;15.80;99.90
50606;DHT22;36557;53.572;10.170;2022-09-13T01:00:03;15.80;99.90
50606;DHT22;36557;53.572;10.170;2022-09-13T01:03:03;15.80;99.90
50606;DHT22;36557;53.572;10.170;2022-09-13T01:05:35;15.80;99.90
50606;DHT22;36557;53.572;10.170;2022-09-13T01:08:01;15.80;99.90
50606;DHT22;36557;53.572;10.170;2022-09-13T01:10:28;15.80;99.90
50606;DHT22;36557;53.572;10.170;2022-09-13T01:13:03;15.70;99.90
50606;DHT22;36557;53.572;10.170;2022-09-13T01:15:35;15.70;99.90
50606;DHT22;36557;53.572;10.170;2022-09-13T01:18:01;15.70;99.90
50606;DHT22;36557;53.572;10.170;2022-09-13T01:20:44;15.70;99.90
50606;DHT22;36557;53.572;10.170;2022-09-13T01:34:22;15.50;99.90
50606;DHT22;36557;53.572;10.170;2022-09-13T01:50:10;15.50;99.90
50606;DHT22;36557;53.572;10.170;2022-09-13T01:52:59;15.50;99.90
50606;DHT22;36557;53.572;10.170;2022-09-13T01:55:31;15.40;99.90
50606;DHT22;36557;53.572;10.170;2022-09-13T02:01:28;15.40;99.90
50606;DHT22;36557;53.572;10.170;2022-09-13T02:04:06;15.50;99.90
50606;DHT22;36557;53.572;10.170;2022-09-13T02:06:40;15.50;99.90
50606;DHT22;36557;53.572;10.170;2022-09-13T02:09:19;15.50;99.90
50606;DHT22;36557;53.572;10.170;2022-09-13T02:11:50;15.50;99.90
50606;DHT22;36557;53.572;10.170;2022-09-13T02:14:23;15.40;99.90
50606;DHT22;36557;53.572;10.170;2022-09-13T02:17:17;15.50;99.90
50606;DHT22;36557;53.572;10.170;2022-09-13T02:22:18;15.40;99.90
50606;DHT22;36557;53.572;10.170;2022-09-13T02:24:48;15.40;99.90
50606;DHT22;36557;53.572;10.170;2022-09-13T02:27:20;15.40;99.90
50606;DHT22;36557;53.572;10.170;2022-09-13T02:29:52;15.40;99.90
50606;DHT22;36557;53.572;10.170;2022-09-13T02:35:00;15.30;99.90
50606;DHT22;36557;53.572;10.170;2022-09-13T02:37:30;15.30;99.90
50606;DHT22;36557;53.572;10.170;2022-09-13T02:40:08;15.30;99.90
50606;DHT22;36557;53.572;10.170;2022-09-13T02:42:41;15.30;99.90
50606;DHT22;36557;53.572;10.170;2022-09-13T02:45:09;15.30;99.90
50606;DHT22;36557;53.572;10.170;2022-09-13T02:52:52;15.40;99.90
50606;DHT22;36557;53.572;10.170;2022-09-13T02:55:40;15.40;99.90
50606;DHT22;36557;53.572;10.170;2022-09-13T02:58:11;15.40;99.90
50606;DHT22;36557;53.572;10.170;2022-09-13T03:00:38;15.40;99.90
50606;DHT22;36557;53.572;10.170;2022-09-13T03:03:07;15.40;99.90
50606;DHT22;36557;53.572;10.170;2022-09-13T03:05:34;15.30;99.90
50606;DHT22;36557;53.572;10.170;2022-09-13T03:08:00;15.40;99.90
50606;DHT22;36557;53.572;10.170;2022-09-13T03:27:02;15.30;99.90
50606;DHT22;36557;53.572;10.170;2022-09-13T03:34:57;15.30;99.90
50606;DHT22;36557;53.572;10.170;2022-09-13T03:40:52;15.30;99.90
50606;DHT22;36557;53.572;10.170;2022-09-13T03:43:35;15.40;99.90
50606;DHT22;36557;53.572;10.170;2022-09-13T03:46:09;15.30;99.90
50606;DHT22;36557;53.572;10.170;2022-09-13T03:48:38;15.30;99.90
50606;DHT22;36557;53.572;10.170;2022-09-13T03:51:05;15.40;99.90
50606;DHT22;36557;53.572;10.170;2022-09-13T03:53:34;15.30;99.90
50606;DHT22;36557;53.572;10.170;2022-09-13T03:56:15;15.40;99.90
50606;DHT22;36557;53.572;10.170;2022-09-13T03:58:41;15.40;99.90
50606;DHT22;36557;53.572;10.170;2022-09-13T04:01:07;15.30;99.90
50606;DHT22;36557;53.572;10.170;2022-09-13T04:03:35;15.40;99.90
50606;DHT22;36557;53.572;10.170;2022-09-13T04:06:01;15.30;99.90
50606;DHT22;36557;53.572;10.170;2022-09-13T04:08:26;15.30;99.90
50606;DHT22;36557;53.572;10.170;2022-09-13T04:10:52;15.30;99.90
50606;DHT22;36557;53.572;10.170;2022-09-13T04:13:18;15.40;99.90
50606;DHT22;36557;53.572;10.170;2022-09-13T04:15:47;15.30;99.90
50606;DHT22;36557;53.572;10.170;2022-09-13T04:18:14;15.30;99.90
50606;DHT22;36557;53.572;10.170;2022-09-13T04:20:40;15.30;99.90
50606;DHT22;36557;53.572;10.170;2022-09-13T04:23:06;15.30;99.90
50606;DHT22;36557;53.572;10.170;2022-09-13T04:25:32;15.40;99.90
50606;DHT22;36557;53.572;10.170;2022-09-13T04:27:58;15.40;99.90
50606;DHT22;36557;53.572;10.170;2022-09-13T04:30:27;15.30;99.90
50606;DHT22;36557;53.572;10.170;2022-09-13T04:32:52;15.30;99.90
50606;DHT22;36557;53.572;10.170;2022-09-13T04:35:21;15.30;99.90
50606;DHT22;36557;53.572;10.170;2022-09-13T04:37:46;15.30;99.90
50606;DHT22;36557;53.572;10.170;2022-09-13T04:40:12;15.40;99.90
50606;DHT22;36557;53.572;10.170;2022-09-13T04:42:39;15.40;99.90
50606;DHT22;36557;53.572;10.170;2022-09-13T04:45:05;15.40;99.90
50606;DHT22;36557;53.572;10.170;2022-09-13T04:47:31;15.40;99.90
50606;DHT22;36557;53.572;10.170;2022-09-13T04:49:57;15.40;99.90
50606;DHT22;36557;53.572;10.170;2022-09-13T04:52:22;15.40;99.90
50606;DHT22;36557;53.572;10.170;2022-09-13T04:54:48;15.30;99.90
50606;DHT22;36557;53.572;10.170;2022-09-13T04:57:15;15.40;99.90
50606;DHT22;36557;53.572;10.170;2022-09-13T04:59:41;15.40;99.90
50606;DHT22;36557;53.572;10.170;2022-09-13T05:02:08;15.40;99.90
50606;DHT22;36557;53.572;10.170;2022-09-13T05:04:33;15.30;99.90
50606;DHT22;36557;53.572;10.170;2022-09-13T05:06:59;15.40;99.90
50606;DHT22;36557;53.572;10.170;2022-09-13T05:09:25;15.40;99.90
50606;DHT22;36557;53.572;10.170;2022-09-13T05:11:50;15.40;99.90
50606;DHT22;36557;53.572;10.170;2022-09-13T05:14:19;15.40;99.90
50606;DHT22;36557;53.572;10.170;2022-09-13T05:16:53;15.40;99.90
50606;DHT22;36557;53.572;10.170;2022-09-13T05:19:19;15.50;99.90
50606;DHT22;36557;53.572;10.170;2022-09-13T05:21:45;15.40;99.90
50606;DHT22;36557;53.572;10.170;2022-09-13T05:24:11;15.40;99.90
50606;DHT22;36557;53.572;10.170;2022-09-13T05:26:37;15.40;99.90
50606;DHT22;36557;53.572;10.170;2022-09-13T05:29:03;15.50;99.90
50606;DHT22;36557;53.572;10.170;2022-09-13T05:31:35;15.50;99.90
50606;DHT22;36557;53.572;10.170;2022-09-13T05:34:04;15.50;99.90
50606;DHT22;36557;53.572;10.170;2022-09-13T05:36:30;15.50;99.90
50606;DHT22;36557;53.572;10.170;2022-09-13T05:38:56;15.50;99.90
50606;DHT22;36557;53.572;10.170;2022-09-13T05:41:22;15.60;99.90
50606;DHT22;36557;53.572;10.170;2022-09-13T05:43:48;15.60;99.90
50606;DHT22;36557;53.572;10.170;2022-09-13T05:46:15;15.70;99.90
50606;DHT22;36557;53.572;10.170;2022-09-13T05:48:42;15.70;99.90
50606;DHT22;36557;53.572;10.170;2022-09-13T05:51:09;15.60;99.90
50606;DHT22;36557;53.572;10.170;2022-09-13T05:53:36;15.70;99.90
50606;DHT22;36557;53.572;10.170;2022-09-13T05:56:04;15.70;99.90
50606;DHT22;36557;53.572;10.170;2022-09-13T05:58:31;15.80;99.90
50606;DHT22;36557;53.572;10.170;2022-09-13T06:00:57;15.90;99.90
50606;DHT22;36557;53.572;10.170;2022-09-13T06:03:23;16.00;99.90
50606;DHT22;36557;53.572;10.170;2022-09-13T06:05:49;16.00;99.90
50606;DHT22;36557;53.572;10.170;2022-09-13T06:08:16;16.10;99.90
50606;DHT22;36557;53.572;10.170;2022-09-13T06:10:42;16.30;99.90
50606;DHT22;36557;53.572;10.170;2022-09-13T06:13:08;16.30;99.90
50606;DHT22;36557;53.572;10.170;2022-09-13T06:15:33;16.20;99.90
50606;DHT22;36557;53.572;10.170;2022-09-13T06:17:59;16.30;99.90
50606;DHT22;36557;53.572;10.170;2022-09-13T06:20:25;16.30;99.90
50606;DHT22;36557;53.572;10.170;2022-09-13T06:22:50;16.30;99.90
50606;DHT22;36557;53.572;10.170;2022-09-13T06:25:16;16.40;99.90
50606;DHT22;36557;53.572;10.170;2022-09-13T06:27:42;16.30;99.90
50606;DHT22;36557;53.572;10.170;2022-09-13T06:30:08;16.40;99.90
50606;DHT22;36557;53.572;10.170;2022-09-13T06:32:34;16.50;99.90
50606;DHT22;36557;53.572;10.170;2022-09-13T06:35:00;16.50;99.90
50606;DHT22;36557;53.572;10.170;2022-09-13T06:37:25;16.60;99.90
50606;DHT22;36557;53.572;10.170;2022-09-13T06:39:51;16.70;99.90
50606;DHT22;36557;53.572;10.170;2022-09-13T06:42:17;16.70;99.90
50606;DHT22;36557;53.572;10.170;2022-09-13T06:44:43;16.80;99.90
50606;DHT22;36557;53.572;10.170;2022-09-13T06:47:11;16.80;99.90
50606;DHT22;36557;53.572;10.170;2022-09-13T06:49:37;16.80;99.90
50606;DHT22;36557;53.572;10.170;2022-09-13T06:52:04;16.90;99.90
50606;DHT22;36557;53.572;10.170;2022-09-13T06:54:29;17.10;99.90
50606;DHT22;36557;53.572;10.170;2022-09-13T06:56:55;17.10;99.90
50606;DHT22;36557;53.572;10.170;2022-09-13T06:59:21;17.20;99.90
50606;DHT22;36557;53.572;10.170;2022-09-13T07:01:47;17.30;99.90
50606;DHT22;36557;53.572;10.170;2022-09-13T07:04:15;17.60;99.90
50606;DHT22;36557;53.572;10.170;2022-09-13T07:06:43;17.70;99.90
50606;DHT22;36557;53.572;10.170;2022-09-13T07:09:14;17.70;99.90
50606;DHT22;36557;53.572;10.170;2022-09-13T07:11:43;17.70;99.90
50606;DHT22;36557;53.572;10.170;2022-09-13T07:14:13;17.80;99.90
50606;DHT22;36557;53.572;10.170;2022-09-13T07:16:38;17.60;99.90
50606;DHT22;36557;53.572;10.170;2022-09-13T07:19:07;17.80;99.90
50606;DHT22;36557;53.572;10.170;2022-09-13T07:21:36;17.70;99.90
50606;DHT22;36557;53.572;10.170;2022-09-13T07:24:02;17.70;99.90
50606;DHT22;36557;53.572;10.170;2022-09-13T07:26:28;17.90;99.90
50606;DHT22;36557;53.572;10.170;2022-09-13T07:28:58;18.00;99.90
50606;DHT22;36557;53.572;10.170;2022-09-13T07:31:26;18.20;99.90
50606;DHT22;36557;53.572;10.170;2022-09-13T07:34:01;18.50;99.90
50606;DHT22;36557;53.572;10.170;2022-09-13T07:36:28;18.70;99.90
50606;DHT22;36557;53.572;10.170;2022-09-13T07:38:54;18.80;99.90
50606;DHT22;36557;53.572;10.170;2022-09-13T07:41:22;19.10;99.90
50606;DHT22;36557;53.572;10.170;2022-09-13T07:43:48;19.40;99.90
50606;DHT22;36557;53.572;10.170;2022-09-13T07:46:22;19.40;99.90
50606;DHT22;36557;53.572;10.170;2022-09-13T07:48:50;19.00;99.90
50606;DHT22;36557;53.572;10.170;2022-09-13T07:51:21;18.80;99.90
50606;DHT22;36557;53.572;10.170;2022-09-13T07:53:48;18.50;99.90
50606;DHT22;36557;53.572;10.170;2022-09-13T07:58:41;18.30;99.90
50606;DHT22;36557;53.572;10.170;2022-09-13T08:01:10;18.60;99.90
50606;DHT22;36557;53.572;10.170;2022-09-13T08:03:37;18.90;99.90
50606;DHT22;36557;53.572;10.170;2022-09-13T08:06:04;19.30;99.90
50606;DHT22;36557;53.572;10.170;2022-09-13T08:08:30;19.30;99.90
50606;DHT22;36557;53.572;10.170;2022-09-13T08:10:57;19.50;99.90
50606;DHT22;36557;53.572;10.170;2022-09-13T08:13:24;19.40;99.90
50606;DHT22;36557;53.572;10.170;2022-09-13T08:15:50;19.10;99.90
50606;DHT22;36557;53.572;10.170;2022-09-13T08:18:17;18.90;99.90
50606;DHT22;36557;53.572;10.170;2022-09-13T08:20:42;18.80;99.90
50606;DHT22;36557;53.572;10.170;2022-09-13T08:23:10;18.50;99.90
50606;DHT22;36557;53.572;10.170;2022-09-13T08:25:36;18.90;99.90
50606;DHT22;36557;53.572;10.170;2022-09-13T08:28:14;18.90;99.90
50606;DHT22;36557;53.572;10.170;2022-09-13T08:30:41;19.00;99.90
50606;DHT22;36557;53.572;10.170;2022-09-13T08:33:08;19.10;99.90
50606;DHT22;36557;53.572;10.170;2022-09-13T08:35:34;18.90;99.90
50606;DHT22;36557;53.572;10.170;2022-09-13T08:38:00;18.90;99.90
50606;DHT22;36557;53.572;10.170;2022-09-13T08:40:37;18.80;99.90
50606;DHT22;36557;53.572;10.170;2022-09-13T08:45:51;18.30;99.90
50606;DHT22;36557;53.572;10.170;2022-09-13T08:48:22;18.30;99.90
50606;DHT22;36557;53.572;10.170;2022-09-13T08:50:53;18.70;99.90
50606;DHT22;36557;53.572;10.170;2022-09-13T08:53:28;18.60;99.90
50606;DHT22;36557;53.572;10.170;2022-09-13T08:56:10;18.70;99.90
50606;DHT22;36557;53.572;10.170;2022-09-13T09:06:41;19.20;99.90
50606;DHT22;36557;53.572;10.170;2022-09-13T09:09:14;19.10;99.90
50606;DHT22;36557;53.572;10.170;2022-09-13T09:11:41;19.20;99.90
50606;DHT22;36557;53.572;10.170;2022-09-13T09:17:21;19.30;99.90
50606;DHT22;36557;53.572;10.170;2022-09-13T09:19:51;19.10;99.90
50606;DHT22;36557;53.572;10.170;2022-09-13T09:22:20;19.20;99.90
50606;DHT22;36557;53.572;10.170;2022-09-13T09:24:50;19.40;99.90
50606;DHT22;36557;53.572;10.170;2022-09-13T09:27:19;19.70;99.90
50606;DHT22;36557;53.572;10.170;2022-09-13T09:29:48;20.00;99.90
50606;DHT22;36557;53.572;10.170;2022-09-13T09:32:51;19.80;99.90
50606;DHT22;36557;53.572;10.170;2022-09-13T09:35:44;20.50;99.90
50606;DHT22;36557;53.572;10.170;2022-09-13T09:40:51;19.50;99.90
50606;DHT22;36557;53.572;10.170;2022-09-13T09:43:34;19.80;99.90
50606;DHT22;36557;53.572;10.170;2022-09-13T09:46:06;19.70;99.90
50606;DHT22;36557;53.572;10.170;2022-09-13T09:48:53;19.70;99.90
50606;DHT22;36557;53.572;10.170;2022-09-13T09:51:22;19.90;99.90
50606;DHT22;36557;53.572;10.170;2022-09-13T09:53:56;20.20;99.90
50606;DHT22;36557;53.572;10.170;2022-09-13T09:56:28;20.70;99.90
50606;DHT22;36557;53.572;10.170;2022-09-13T09:58:55;21.70;99.90
50606;DHT22;36557;53.572;10.170;2022-09-13T10:06:39;21.30;99.90
50606;DHT22;36557;53.572;10.170;2022-09-13T10:09:06;21.40;99.90
50606;DHT22;36557;53.572;10.170;2022-09-13T10:14:26;20.00;99.90
50606;DHT22;36557;53.572;10.170;2022-09-13T10:17:25;20.30;99.90
50606;DHT22;36557;53.572;10.170;2022-09-13T10:20:00;20.50;99.90
50606;DHT22;36557;53.572;10.170;2022-09-13T10:22:28;21.10;99.90
50606;DHT22;36557;53.572;10.170;2022-09-13T10:24:54;21.70;99.90
50606;DHT22;36557;53.572;10.170;2022-09-13T10:27:33;21.40;99.90
50606;DHT22;36557;53.572;10.170;2022-09-13T10:30:01;21.70;99.90
50606;DHT22;36557;53.572;10.170;2022-09-13T10:32:28;22.00;99.90
50606;DHT22;36557;53.572;10.170;2022-09-13T10:34:58;21.90;99.90
50606;DHT22;36557;53.572;10.170;2022-09-13T10:37:27;21.80;99.50
50606;DHT22;36557;53.572;10.170;2022-09-13T10:40:29;22.40;99.90
50606;DHT22;36557;53.572;10.170;2022-09-13T10:42:57;22.30;99.90
50606;DHT22;36557;53.572;10.170;2022-09-13T10:45:26;22.60;99.90
50606;DHT22;36557;53.572;10.170;2022-09-13T10:48:05;22.80;99.10
50606;DHT22;36557;53.572;10.170;2022-09-13T10:50:35;22.90;97.90
50606;DHT22;36557;53.572;10.170;2022-09-13T10:53:02;23.10;99.90
50606;DHT22;36557;53.572;10.170;2022-09-13T10:55:35;22.20;98.60
50606;DHT22;36557;53.572;10.170;2022-09-13T11:08:52;21.50;99.60
50606;DHT22;36557;53.572;10.170;2022-09-13T11:11:45;21.40;97.90
50606;DHT22;36557;53.572;10.170;2022-09-13T11:14:36;22.70;99.90
50606;DHT22;36557;53.572;10.170;2022-09-13T11:22:33;22.60;96.40
50606;DHT22;36557;53.572;10.170;2022-09-13T11:30:20;24.50;95.10
50606;DHT22;36557;53.572;10.170;2022-09-13T11:36:22;23.10;96.60
50606;DHT22;36557;53.572;10.170;2022-09-13T11:39:27;22.60;96.30
50606;DHT22;36557;53.572;10.170;2022-09-13T11:42:10;23.20;96.90
50606;DHT22;36557;53.572;10.170;2022-09-13T11:45:17;23.40;96.20
50606;DHT22;36557;53.572;10.170;2022-09-13T11:53:18;22.60;93.10
50606;DHT22;36557;53.572;10.170;2022-09-13T11:55:58;22.50;95.50
50606;DHT22;36557;53.572;10.170;2022-09-13T11:58:27;22.20;93.80
50606;DHT22;36557;53.572;10.170;2022-09-13T12:01:02;22.70;97.10
50606;DHT22;36557;53.572;10.170;2022-09-13T12:03:51;23.40;96.50
50606;DHT22;36557;53.572;10.170;2022-09-13T12:06:24;23.20;96.00
50606;DHT22;36557;53.572;10.170;2022-09-13T12:09:12;24.40;96.70
50606;DHT22;36557;53.572;10.170;2022-09-13T12:11:49;23.60;94.10
50606;DHT22;36557;53.572;10.170;2022-09-13T12:14:24;22.60;94.90
50606;DHT22;36557;53.572;10.170;2022-09-13T12:16:58;21.40;95.00
50606;DHT22;36557;53.572;10.170;2022-09-13T12:19:46;22.50;95.50
50606;DHT22;36557;53.572;10.170;2022-09-13T12:22:16;22.00;94.30
50606;DHT22;36557;53.572;10.170;2022-09-13T12:24:50;23.00;95.90
50606;DHT22;36557;53.572;10.170;2022-09-13T12:27:54;24.00;94.60
50606;DHT22;36557;53.572;10.170;2022-09-13T12:30:20;25.00;94.50
50606;DHT22;36557;53.572;10.170;2022-09-13T12:32:46;24.40;94.50
50606;DHT22;36557;53.572;10.170;2022-09-13T12:35:24;24.10;94.80
50606;DHT22;36557;53.572;10.170;2022-09-13T12:52:26;23.00;96.00
50606;DHT22;36557;53.572;10.170;2022-09-13T13:01:10;22.00;96.80
50606;DHT22;36557;53.572;10.170;2022-09-13T13:04:08;21.90;95.60
50606;DHT22;36557;53.572;10.170;2022-09-13T13:06:48;22.50;96.20
50606;DHT22;36557;53.572;10.170;2022-09-13T13:09:41;22.40;96.40
50606;DHT22;36557;53.572;10.170;2022-09-13T13:12:24;22.70;97.00
50606;DHT22;36557;53.572;10.170;2022-09-13T13:14:51;23.30;96.60
50606;DHT22;36557;53.572;10.170;2022-09-13T13:17:35;22.40;95.90
50606;DHT22;36557;53.572;10.170;2022-09-13T13:23:27;23.00;97.50
50606;DHT22;36557;53.572;10.170;2022-09-13T13:41:55;21.80;96.10
50606;DHT22;36557;53.572;10.170;2022-09-13T13:59:48;20.80;96.80
50606;DHT22;36557;53.572;10.170;2022-09-13T14:02:18;21.00;98.50
50606;DHT22;36557;53.572;10.170;2022-09-13T14:10:24;20.10;99.90
50606;DHT22;36557;53.572;10.170;2022-09-13T14:19:07;20.50;99.90
50606;DHT22;36557;53.572;10.170;2022-09-13T14:21:34;20.20;99.90
50606;DHT22;36557;53.572;10.170;2022-09-13T14:24:19;20.40;99.90
50606;DHT22;36557;53.572;10.170;2022-09-13T14:26:49;20.60;99.90
50606;DHT22;36557;53.572;10.170;2022-09-13T14:29:17;20.20;99.90
50606;DHT22;36557;53.572;10.170;2022-09-13T14:31:48;19.70;99.90
50606;DHT22;36557;53.572;10.170;2022-09-13T14:34:29;20.10;99.90
50606;DHT22;36557;53.572;10.170;2022-09-13T14:36:58;20.70;99.90
50606;DHT22;36557;53.572;10.170;2022-09-13T14:39:24;20.80;99.90
50606;DHT22;36557;53.572;10.170;2022-09-13T14:44:46;20.30;99.90
50606;DHT22;36557;53.572;10.170;2022-09-13T14:47:24;20.30;99.90
50606;DHT22;36557;53.572;10.170;2022-09-13T14:50:04;20.10;99.90
50606;DHT22;36557;53.572;10.170;2022-09-13T14:52:35;20.10;99.90
50606;DHT22;36557;53.572;10.170;2022-09-13T14:55:10;20.00;99.90
50606;DHT22;36557;53.572;10.170;2022-09-13T14:57:40;20.40;99.90
50606;DHT22;36557;53.572;10.170;2022-09-13T15:00:27;20.20;99.90
50606;DHT22;36557;53.572;10.170;2022-09-13T15:02:59;20.30;99.90
50606;DHT22;36557;53.572;10.170;2022-09-13T15:05:31;19.80;99.90
50606;DHT22;36557;53.572;10.170;2022-09-13T15:07:57;19.80;99.90
50606;DHT22;36557;53.572;10.170;2022-09-13T15:10:27;19.70;99.90
50606;DHT22;36557;53.572;10.170;2022-09-13T15:15:41;19.80;99.90
50606;DHT22;36557;53.572;10.170;2022-09-13T15:20:58;20.40;99.90
50606;DHT22;36557;53.572;10.170;2022-09-13T15:26:19;19.80;99.40
50606;DHT22;36557;53.572;10.170;2022-09-13T15:28:50;19.70;99.90
50606;DHT22;36557;53.572;10.170;2022-09-13T15:31:29;19.90;99.90
50606;DHT22;36557;53.572;10.170;2022-09-13T15:36:46;20.20;99.90
50606;DHT22;36557;53.572;10.170;2022-09-13T15:39:19;20.20;99.90
50606;DHT22;36557;53.572;10.170;2022-09-13T15:41:56;19.90;99.90
50606;DHT22;36557;53.572;10.170;2022-09-13T15:44:25;19.90;99.90
50606;DHT22;36557;53.572;10.170;2022-09-13T15:46:56;19.50;99.90
50606;DHT22;36557;53.572;10.170;2022-09-13T15:49:26;19.00;99.90
50606;DHT22;36557;53.572;10.170;2022-09-13T15:51:58;19.00;99.90
50606;DHT22;36557;53.572;10.170;2022-09-13T15:54:33;18.70;99.90
50606;DHT22;36557;53.572;10.170;2022-09-13T15:56:59;18.70;99.90
50606;DHT22;36557;53.572;10.170;2022-09-13T15:59:25;18.40;99.90
50606;DHT22;36557;53.572;10.170;2022-09-13T16:01:51;18.20;99.90
50606;DHT22;36557;53.572;10.170;2022-09-13T16:04:18;18.30;99.90
50606;DHT22;36557;53.572;10.170;2022-09-13T16:06:44;18.30;99.90
50606;DHT22;36557;53.572;10.170;2022-09-13T16:09:17;18.50;99.90
50606;DHT22;36557;53.572;10.170;2022-09-13T16:11:44;18.60;99.90
50606;DHT22;36557;53.572;10.170;2022-09-13T16:14:10;18.50;99.90
50606;DHT22;36557;53.572;10.170;2022-09-13T16:16:36;18.20;99.90
50606;DHT22;36557;53.572;10.170;2022-09-13T16:19:02;18.10;99.90
50606;DHT22;36557;53.572;10.170;2022-09-13T16:21:28;18.40;99.90
50606;DHT22;36557;53.572;10.170;2022-09-13T16:23:54;18.30;99.90
50606;DHT22;36557;53.572;10.170;2022-09-13T16:26:20;18.00;99.90
50606;DHT22;36557;53.572;10.170;2022-09-13T16:28:45;18.30;99.90
50606;DHT22;36557;53.572;10.170;2022-09-13T16:31:11;18.30;99.90
50606;DHT22;36557;53.572;10.170;2022-09-13T16:33:39;18.20;99.90
50606;DHT22;36557;53.572;10.170;2022-09-13T16:36:05;18.20;99.90
50606;DHT22;36557;53.572;10.170;2022-09-13T16:38:31;18.30;99.90
50606;DHT22;36557;53.572;10.170;2022-09-13T16:40:56;18.00;99.90
50606;DHT22;36557;53.572;10.170;2022-09-13T16:43:22;17.80;99.90
50606;DHT22;36557;53.572;10.170;2022-09-13T16:45:48;17.80;99.90
50606;DHT22;36557;53.572;10.170;2022-09-13T16:48:16;17.60;99.90
50606;DHT22;36557;53.572;10.170;2022-09-13T16:50:41;17.70;99.90
50606;DHT22;36557;53.572;10.170;2022-09-13T16:53:08;17.90;99.90
50606;DHT22;36557;53.572;10.170;2022-09-13T16:55:34;17.90;99.90
50606;DHT22;36557;53.572;10.170;2022-09-13T16:58:00;17.90;99.90
50606;DHT22;36557;53.572;10.170;2022-09-13T17:00:25;18.00;99.90
50606;DHT22;36557;53.572;10.170;2022-09-13T17:02:54;17.90;99.90
50606;DHT22;36557;53.572;10.170;2022-09-13T17:05:21;17.70;99.90
50606;DHT22;36557;53.572;10.170;2022-09-13T17:07:47;17.70;99.90
50606;DHT22;36557;53.572;10.170;2022-09-13T17:10:13;17.70;99.90
50606;DHT22;36557;53.572;10.170;2022-09-13T17:12:39;17.60;99.90
50606;DHT22;36557;53.572;10.170;2022-09-13T17:15:06;17.70;99.90
50606;DHT22;36557;53.572;10.170;2022-09-13T17:17:32;17.50;99.90
50606;DHT22;36557;53.572;10.170;2022-09-13T17:20:04;17.40;99.90
50606;DHT22;36557;53.572;10.170;2022-09-13T17:22:32;17.10;99.90
50606;DHT22;36557;53.572;10.170;2022-09-13T17:24:58;17.10;99.90
50606;DHT22;36557;53.572;10.170;2022-09-13T17:27:26;17.20;99.90
50606;DHT22;36557;53.572;10.170;2022-09-13T17:29:52;17.30;99.90
50606;DHT22;36557;53.572;10.170;2022-09-13T17:32:18;17.20;99.90
50606;DHT22;36557;53.572;10.170;2022-09-13T17:34:44;17.30;99.90
50606;DHT22;36557;53.572;10.170;2022-09-13T17:37:10;17.20;99.90
50606;DHT22;36557;53.572;10.170;2022-09-13T17:39:35;17.10;99.90
50606;DHT22;36557;53.572;10.170;2022-09-13T17:42:01;17.00;99.90
50606;DHT22;36557;53.572;10.170;2022-09-13T17:44:27;16.90;99.90
50606;DHT22;36557;53.572;10.170;2022-09-13T17:46:53;16.80;99.90
50606;DHT22;36557;53.572;10.170;2022-09-13T17:49:18;16.80;99.90
50606;DHT22;36557;53.572;10.170;2022-09-13T17:51:45;16.80;99.90
50606;DHT22;36557;53.572;10.170;2022-09-13T17:54:11;16.60;99.90
50606;DHT22;36557;53.572;10.170;2022-09-13T17:56:42;16.60;99.90
50606;DHT22;36557;53.572;10.170;2022-09-13T17:59:16;16.70;99.90
50606;DHT22;36557;53.572;10.170;2022-09-13T18:01:44;16.60;99.90
50606;DHT22;36557;53.572;10.170;2022-09-13T18:04:10;16.70;99.90
50606;DHT22;36557;53.572;10.170;2022-09-13T18:06:37;16.60;99.90
50606;DHT22;36557;53.572;10.170;2022-09-13T18:09:05;16.70;99.90
50606;DHT22;36557;53.572;10.170;2022-09-13T18:11:31;16.80;99.90
50606;DHT22;36557;53.572;10.170;2022-09-13T18:13:57;16.80;99.90
50606;DHT22;36557;53.572;10.170;2022-09-13T18:16:25;17.00;99.90
50606;DHT22;36557;53.572;10.170;2022-09-13T18:18:52;17.10;99.90
50606;DHT22;36557;53.572;10.170;2022-09-13T18:21:19;17.00;99.90
50606;DHT22;36557;53.572;10.170;2022-09-13T18:23:47;17.20;99.90
50606;DHT22;36557;53.572;10.170;2022-09-13T18:26:15;17.10;99.90
50606;DHT22;36557;53.572;10.170;2022-09-13T18:28:41;17.20;99.90
50606;DHT22;36557;53.572;10.170;2022-09-13T18:31:11;17.10;99.90
50606;DHT22;36557;53.572;10.170;2022-09-13T18:33:37;17.10;99.90
50606;DHT22;36557;53.572;10.170;2022-09-13T18:36:06;17.20;99.90
50606;DHT22;36557;53.572;10.170;2022-09-13T18:38:50;17.20;99.90
50606;DHT22;36557;53.572;10.170;2022-09-13T18:41:21;17.20;99.90
50606;DHT22;36557;53.572;10.170;2022-09-13T18:43:49;17.20;99.90
50606;DHT22;36557;53.572;10.170;2022-09-13T18:46:18;17.00;99.90
50606;DHT22;36557;53.572;10.170;2022-09-13T18:48:46;17.10;99.90
50606;DHT22;36557;53.572;10.170;2022-09-13T18:51:17;17.10;99.90
50606;DHT22;36557;53.572;10.170;2022-09-13T18:53:44;17.10;99.90
50606;DHT22;36557;53.572;10.170;2022-09-13T18:56:12;17.10;99.90
50606;DHT22;36557;53.572;10.170;2022-09-13T18:58:39;17.10;99.90